SBUGSBPA

Guest
Details From SBUG - Rubem Berta
To SBPA - Salgado Filho
Flight Number -
Tags Generated
Created
Modified
Stats Distance 305 nm / 565 km
Max Altitude 0 ft / 0 m
Waypoints 3
Social Downloads 2
Likes 0
Share VATSIM

Download

Looking for another format? Having issues loading an existing format? Contact us
Advertisement - Login to hide

Notes

Generated

Route

SBUG IA SBPA

ID Type Via Altitude Latitude Longitude Leg Dist Tot Dist Heading (true) Name
O SBUG APT - 0 ft / 0 m -29.78470˚ -57.04066˚ - 0 nm - Rubem Berta
IA NDB - 0 ft / 0 m -29.99400˚ -51.19583˚ 304 nm 304 nm 94° / 91° PESTANA NDB
O SBPA APT - 0 ft / 0 m -29.99414˚ -51.18327˚ 0 nm 305 nm 91° / 91° -

Altitude Profile

Advertisement - Login to hide

Weather


0- 5 10 15 20 25 30 35+ Temperature / ° C

Clouds and Precipitation
Forecast for 2017-12-11 12:00 UTC. Updated 6 minutes ago

Ground ~20,000 ft ~40,000 ft Winds

SBUG

Details ICAO SBUG (URG)
Name Rubem Berta
Region Brazil
Timezone America/Sao_Paulo (UTC-2.0)
Stats Elevation 256 ft / 78 m (AMSL)
Location -29.781908° -57.037952°
Runways 2
Magnetic Variation 12.675° W

METAR

SBUG 110900Z 18012KT CAVOK 19/12 Q1010

Decode

TAF

TAF SBUG 110200Z 1106/1206 17012KT CAVOK TX32/1118Z TN20/1206Z BECMG 1116/1118 14007KT BECMG 1200/1202 10012KT RMK PDW

Decode

Departure Runways

ID Width Length Bearing (true) Bearing (mag) Surface Threshold Offset Overrun Length
04 202 ft / 62 m 2,730 ft / 832 m 35.02° 47.70° Grass 0 ft / 0 m 0 ft / 0 m
09 98 ft / 30 m 4,914 ft / 1,498 m 84.72° 97.40° Asphalt 0 ft / 0 m 195 ft / 59 m
22 202 ft / 62 m 2,730 ft / 832 m 215.02° 227.70° Grass 0 ft / 0 m 0 ft / 0 m
27 98 ft / 30 m 4,914 ft / 1,498 m 264.72° 277.40° Asphalt 0 ft / 0 m 195 ft / 59 m

SBPA

Details ICAO SBPA (POA)
Name Salgado Filho
Region Brazil
Timezone America/Sao_Paulo (UTC-2.0)
Stats Elevation 11 ft / 3 m (AMSL)
Location -29.994428° -51.171426°
Runways 1
Magnetic Variation 16.877° W

METAR

SBPA 110900Z 21003KT 170V240 CAVOK 21/16 Q1009

Decode

TAF

Not found

Destination Runways

ID Width Length Bearing (true) Bearing (mag) Surface Threshold Offset Overrun Length
11 138 ft / 42 m 7,487 ft / 2,282 m 91.60° 108.48° Asphalt 0 ft / 0 m 230 ft / 70 m
29 138 ft / 42 m 7,487 ft / 2,282 m 271.59° 288.47° Asphalt 0 ft / 0 m 197 ft / 60 m

Approach Navaids

Runway Type Ident Frequency Range Bearing (true) Bearing (mag) Slope Elevation
11 Localiser IPA 110.30 MHz 18 nm / 33 km 90.92° 107.80° - 11 ft / 3 m (AMSL)
11 Glidescope IPA 110.30 MHz 10 nm / 19 km 91.60° 108.47° 3.00° 11 ft / 3 m (AMSL)

Popular Alternatives